createdAt,value
2023-04-01T00:01:59.063Z,-9.10
2023-04-01T00:04:26.315Z,-9.00
2023-04-01T00:06:54.023Z,-9.00
2023-04-01T00:09:23.887Z,-9.00
2023-04-01T00:11:51.096Z,-9.00
2023-04-01T00:14:18.468Z,-9.00
2023-04-01T00:16:45.753Z,-9.00
2023-04-01T00:19:12.902Z,-9.00
2023-04-01T00:21:40.001Z,-8.90
2023-04-01T00:24:08.003Z,-9.00
2023-04-01T00:26:35.137Z,-9.00
2023-04-01T00:29:02.449Z,-9.00
2023-04-01T00:31:30.419Z,-9.00
2023-04-01T00:33:57.645Z,-9.10
2023-04-01T00:36:25.030Z,-9.00
2023-04-01T00:38:52.953Z,-9.00
2023-04-01T00:41:22.586Z,-9.00
2023-04-01T00:43:51.927Z,-9.00
2023-04-01T00:46:19.882Z,-9.00
2023-04-01T00:48:51.488Z,-9.00
2023-04-01T00:51:23.036Z,-9.00
2023-04-01T00:53:53.488Z,-9.00
2023-04-01T00:56:26.274Z,-9.00
2023-04-01T00:59:09.254Z,-9.00
2023-04-01T01:01:37.157Z,-9.00
2023-04-01T01:04:04.876Z,-9.00
2023-04-01T01:06:47.194Z,-9.00
2023-04-01T01:09:22.434Z,-9.00
2023-04-01T01:12:41.699Z,-9.00
2023-04-01T01:15:09.138Z,-9.10
2023-04-01T01:18:01.275Z,-9.10
2023-04-01T01:20:39.475Z,-9.10
2023-04-01T01:23:24.690Z,-9.10
2023-04-01T01:26:16.531Z,-9.10
2023-04-01T01:28:57.081Z,-9.10
2023-04-01T01:32:18.432Z,-9.10
2023-04-01T01:35:17.569Z,-8.90
2023-04-01T01:37:47.000Z,-9.00
2023-04-01T01:40:16.684Z,-9.20
2023-04-01T01:42:49.512Z,-9.20
2023-04-01T01:45:20.506Z,-9.20
2023-04-01T01:47:49.916Z,-9.30
2023-04-01T01:50:18.168Z,-9.30
2023-04-01T01:52:45.738Z,-9.40
2023-04-01T01:55:37.388Z,-9.40
2023-04-01T01:58:13.188Z,-9.40
2023-04-01T02:00:41.712Z,-9.40
2023-04-01T02:03:09.638Z,-9.50
2023-04-01T02:05:37.287Z,-9.50
2023-04-01T02:08:13.865Z,-9.50
2023-04-01T02:10:44.664Z,-9.60
2023-04-01T02:13:38.767Z,-9.60
2023-04-01T02:16:14.268Z,-9.70
2023-04-01T02:18:42.614Z,-9.70
2023-04-01T02:21:11.268Z,-9.80
2023-04-01T02:23:39.732Z,-9.80
2023-04-01T02:26:09.278Z,-9.80
2023-04-01T02:28:39.418Z,-9.80
2023-04-01T02:31:07.342Z,-9.90
2023-04-01T02:33:34.954Z,-9.90
2023-04-01T02:36:02.136Z,-9.90
2023-04-01T02:38:29.371Z,-9.90
2023-04-01T02:41:02.068Z,-9.90
2023-04-01T02:43:29.310Z,-10.00
2023-04-01T02:45:56.888Z,-10.10
2023-04-01T02:48:24.175Z,-10.00
2023-04-01T02:50:51.719Z,-10.00
2023-04-01T02:53:18.962Z,-10.10
2023-04-01T02:55:46.460Z,-10.00
2023-04-01T02:58:13.616Z,-10.00
2023-04-01T03:00:40.797Z,-10.00
2023-04-01T03:03:08.291Z,-10.00
2023-04-01T03:05:38.689Z,-10.00
2023-04-01T03:08:06.474Z,-10.00
2023-04-01T03:10:36.312Z,-10.00
2023-04-01T03:13:03.493Z,-10.10
2023-04-01T03:15:30.883Z,-10.10
2023-04-01T03:17:58.395Z,-10.10
2023-04-01T03:20:25.656Z,-10.00
2023-04-01T03:22:52.837Z,-9.90
2023-04-01T03:25:20.408Z,-10.00
2023-04-01T03:27:47.495Z,-10.00
2023-04-01T03:30:14.649Z,-10.00
2023-04-01T03:32:41.903Z,-9.90
2023-04-01T03:35:10.809Z,-9.90
2023-04-01T03:37:38.069Z,-9.90
2023-04-01T03:40:06.197Z,-9.90
2023-04-01T03:42:33.621Z,-9.90
2023-04-01T03:45:00.871Z,-9.90
2023-04-01T03:47:28.136Z,-10.00
2023-04-01T03:49:55.493Z,-10.00
2023-04-01T03:52:22.946Z,-10.00
2023-04-01T03:54:50.120Z,-10.00
2023-04-01T03:57:17.382Z,-10.10
2023-04-01T03:59:44.596Z,-10.10
2023-04-01T04:02:15.051Z,-10.20
2023-04-01T04:04:42.498Z,-10.20
2023-04-01T04:07:09.978Z,-10.30
2023-04-01T04:09:37.290Z,-10.30
2023-04-01T04:12:07.012Z,-10.30
2023-04-01T04:14:34.163Z,-10.40
2023-04-01T04:17:01.343Z,-10.40
2023-04-01T04:19:32.328Z,-10.30
2023-04-01T04:22:01.808Z,-10.30
2023-04-01T04:24:29.064Z,-10.20
2023-04-01T04:26:56.193Z,-10.30
2023-04-01T04:29:23.959Z,-10.30
2023-04-01T04:31:51.131Z,-10.30
2023-04-01T04:34:19.537Z,-10.30
2023-04-01T04:36:46.786Z,-10.30
2023-04-01T04:39:21.233Z,-10.30
2023-04-01T04:41:48.656Z,-10.20
2023-04-01T04:44:16.057Z,-10.20
2023-04-01T04:46:43.236Z,-10.10
2023-04-01T04:49:10.720Z,-10.00
2023-04-01T04:51:37.982Z,-10.00
2023-04-01T04:54:06.066Z,-10.10
2023-04-01T04:56:33.591Z,-10.00
2023-04-01T04:59:01.087Z,-9.90
2023-04-01T05:01:28.498Z,-9.90
2023-04-01T05:03:55.825Z,-9.80
2023-04-01T05:06:23.665Z,-9.80
2023-04-01T05:08:51.446Z,-9.70
2023-04-01T05:11:20.417Z,-9.60
2023-04-01T05:13:47.856Z,-9.60
2023-04-01T05:16:18.349Z,-9.60
2023-04-01T05:18:45.737Z,-9.40
2023-04-01T05:21:15.145Z,-9.30
2023-04-01T05:23:43.116Z,-9.20
2023-04-01T05:26:14.888Z,-9.10
2023-04-01T05:28:42.169Z,-8.90
2023-04-01T05:31:09.552Z,-8.90
2023-04-01T05:33:37.088Z,-8.70
2023-04-01T05:36:12.130Z,-8.50
2023-04-01T05:38:40.824Z,-8.20
2023-04-01T05:41:07.956Z,-8.00
2023-04-01T05:43:37.929Z,-7.80
2023-04-01T05:46:05.708Z,-7.70
2023-04-01T05:48:36.046Z,-7.40
2023-04-01T05:51:04.533Z,-7.00
2023-04-01T05:53:31.922Z,-6.60
2023-04-01T05:56:04.163Z,-6.40
2023-04-01T05:58:34.374Z,-6.40
2023-04-01T06:01:09.588Z,-6.40
2023-04-01T06:03:38.599Z,-6.20
2023-04-01T06:06:09.516Z,-6.00
2023-04-01T06:08:36.731Z,-5.80
2023-04-01T06:11:28.952Z,-5.10
2023-04-01T06:14:17.578Z,-4.40
2023-04-01T06:16:50.630Z,-3.90
2023-04-01T06:19:35.907Z,-2.10
2023-04-01T06:22:14.329Z,0.10
2023-04-01T06:24:47.674Z,2.50
2023-04-01T06:27:33.622Z,2.90
2023-04-01T06:30:24.352Z,2.00
2023-04-01T06:33:10.140Z,1.10
2023-04-01T06:35:57.576Z,1.00
2023-04-01T06:39:06.103Z,-0.20
2023-04-01T06:41:56.728Z,-0.50
2023-04-01T06:44:56.464Z,-1.20
2023-04-01T06:47:58.653Z,-1.30
2023-04-01T06:50:36.154Z,-1.20
2023-04-01T06:53:20.388Z,-0.30
2023-04-01T06:55:57.456Z,0.10
2023-04-01T06:58:30.631Z,0.10
2023-04-01T07:01:05.235Z,-0.90
2023-04-01T07:03:46.296Z,-1.00
2023-04-01T07:06:36.284Z,-1.10
2023-04-01T07:09:17.474Z,-0.70
2023-04-01T07:11:45.037Z,-0.30
2023-04-01T07:14:36.337Z,-0.10
2023-04-01T07:17:16.918Z,-0.30
2023-04-01T07:19:46.622Z,-0.30
2023-04-01T07:22:23.225Z,-0.30
2023-04-01T07:24:51.204Z,-0.20
2023-04-01T07:27:18.517Z,0.50
2023-04-01T07:29:46.385Z,1.90
2023-04-01T07:33:03.099Z,2.60
2023-04-01T07:36:03.001Z,3.00
2023-04-01T07:38:59.310Z,2.20
2023-04-01T07:42:02.983Z,2.40
2023-04-01T07:44:41.482Z,4.50
2023-04-01T07:47:36.072Z,7.70
2023-04-01T07:50:12.164Z,10.40
2023-04-01T07:53:03.767Z,9.90
2023-04-01T07:55:35.995Z,12.20
2023-04-01T07:58:12.431Z,15.10
2023-04-01T08:01:21.252Z,16.10
2023-04-01T08:04:12.949Z,14.70
2023-04-01T08:07:13.095Z,11.60
2023-04-01T08:10:18.393Z,12.60
2023-04-01T08:13:03.604Z,13.10
2023-04-01T08:15:42.848Z,12.00
2023-04-01T08:18:28.103Z,9.00
2023-04-01T08:21:04.045Z,7.40
2023-04-01T08:23:37.718Z,7.80
2023-04-01T08:26:08.368Z,7.80
2023-04-01T08:28:42.712Z,6.30
2023-04-01T08:31:36.065Z,6.70
2023-04-01T08:34:09.466Z,5.60
2023-04-01T08:36:42.233Z,4.70
2023-04-01T08:39:15.831Z,4.70
2023-04-01T08:41:46.089Z,6.90
2023-04-01T08:44:37.883Z,10.00
2023-04-01T08:47:25.064Z,12.90
2023-04-01T08:50:19.477Z,15.60
2023-04-01T08:53:09.157Z,17.10
2023-04-01T08:55:42.184Z,14.10
2023-04-01T08:58:26.520Z,15.50
2023-04-01T09:01:02.608Z,15.00
2023-04-01T09:03:40.288Z,17.20
2023-04-01T09:06:23.512Z,15.00
2023-04-01T09:09:27.314Z,15.60
2023-04-01T09:12:00.510Z,14.60
2023-04-01T09:14:59.078Z,14.40
2023-04-01T09:17:50.520Z,13.30
2023-04-01T09:20:47.174Z,13.50
2023-04-01T09:23:36.118Z,12.20
2023-04-01T09:26:24.502Z,11.30
2023-04-01T09:29:18.777Z,10.80
2023-04-01T09:31:51.773Z,10.20
2023-04-01T09:34:47.249Z,9.40
2023-04-01T09:37:43.100Z,9.60
2023-04-01T09:40:35.035Z,9.20
2023-04-01T09:43:38.161Z,8.30
2023-04-01T09:46:23.823Z,8.60
2023-04-01T09:49:12.386Z,8.80
2023-04-01T09:52:05.102Z,8.90
2023-04-01T09:55:08.449Z,9.00
2023-04-01T09:58:10.523Z,8.50
2023-04-01T10:00:56.461Z,8.40
2023-04-01T10:03:56.070Z,7.50
2023-04-01T10:07:00.887Z,8.20
2023-04-01T10:10:01.464Z,9.20
2023-04-01T10:12:51.454Z,9.90
2023-04-01T10:15:26.280Z,9.90
2023-04-01T10:18:20.692Z,8.80
2023-04-01T10:20:56.648Z,8.30
2023-04-01T10:23:41.954Z,8.40
2023-04-01T10:26:40.491Z,8.70
2023-04-01T10:29:13.620Z,8.50
2023-04-01T10:31:59.754Z,7.40
2023-04-01T10:34:50.524Z,6.80
2023-04-01T10:37:47.946Z,7.10
2023-04-01T10:40:19.041Z,7.20
2023-04-01T10:43:15.262Z,7.30
2023-04-01T10:46:21.317Z,7.00
2023-04-01T10:49:09.669Z,7.50
2023-04-01T10:52:09.236Z,7.70
2023-04-01T10:54:41.405Z,7.30
2023-04-01T10:58:05.731Z,7.10
2023-04-01T11:00:42.400Z,7.60
2023-04-01T11:03:46.762Z,7.60
2023-04-01T11:06:32.959Z,7.20
2023-04-01T11:09:06.271Z,7.00
2023-04-01T11:11:52.167Z,7.00
2023-04-01T11:14:20.019Z,7.20
2023-04-01T11:17:24.970Z,7.30
2023-04-01T11:20:14.071Z,6.60
2023-04-01T11:23:05.368Z,6.50
2023-04-01T11:25:53.956Z,6.50
2023-04-01T11:28:27.055Z,5.80
2023-04-01T11:31:32.232Z,5.70
2023-04-01T11:34:07.239Z,5.50
2023-04-01T11:37:09.494Z,5.50
2023-04-01T11:40:01.052Z,5.70
2023-04-01T11:42:55.360Z,6.00
2023-04-01T11:45:40.949Z,6.30
2023-04-01T11:48:35.601Z,6.60
2023-04-01T11:51:38.398Z,6.70
2023-04-01T11:54:43.032Z,6.50
2023-04-01T11:57:37.563Z,6.00
2023-04-01T12:00:29.092Z,5.90
2023-04-01T12:03:34.258Z,6.20
2023-04-01T12:06:10.217Z,6.10
2023-04-01T12:08:47.602Z,5.80
2023-04-01T12:11:36.388Z,5.80
2023-04-01T12:14:03.454Z,5.80
2023-04-01T12:16:55.217Z,5.40
2023-04-01T12:19:42.737Z,5.70
2023-04-01T12:22:24.812Z,5.10
2023-04-01T12:24:55.080Z,5.30
2023-04-01T12:27:59.353Z,5.50
2023-04-01T12:30:49.653Z,5.70
2023-04-01T12:33:53.992Z,5.10
2023-04-01T12:36:30.004Z,4.90
2023-04-01T12:39:20.223Z,5.10
2023-04-01T12:41:57.283Z,4.70
2023-04-01T12:45:06.768Z,4.80
2023-04-01T12:47:48.933Z,4.80
2023-04-01T12:50:33.361Z,4.80
2023-04-01T12:53:09.510Z,4.80
2023-04-01T12:55:37.807Z,4.70
2023-04-01T12:58:13.853Z,4.50
2023-04-01T13:01:03.119Z,4.70
2023-04-01T13:03:42.413Z,4.60
2023-04-01T13:06:20.897Z,4.80
2023-04-01T13:09:07.670Z,4.90
2023-04-01T13:11:53.606Z,4.60
2023-04-01T13:14:57.822Z,4.50
2023-04-01T13:17:42.184Z,4.60
2023-04-01T13:20:27.593Z,4.60
2023-04-01T13:23:18.620Z,4.80
2023-04-01T13:26:14.530Z,4.90
2023-04-01T13:28:46.742Z,4.60
2023-04-01T13:31:42.815Z,4.80
2023-04-01T13:34:25.212Z,4.90
2023-04-01T13:37:24.730Z,4.70
2023-04-01T13:40:04.428Z,4.80
2023-04-01T13:42:51.040Z,4.70
2023-04-01T13:45:22.619Z,4.70
2023-04-01T13:47:55.997Z,4.50
2023-04-01T13:50:47.717Z,4.70
2023-04-01T13:53:29.205Z,4.40
2023-04-01T13:56:11.528Z,4.40
2023-04-01T13:58:44.739Z,4.20
2023-04-01T14:01:45.620Z,4.20
2023-04-01T14:04:31.285Z,4.30
2023-04-01T14:07:20.414Z,4.20
2023-04-01T14:09:53.397Z,4.30
2023-04-01T14:12:35.452Z,4.40
2023-04-01T14:15:48.592Z,4.20
2023-04-01T14:18:39.430Z,4.20
2023-04-01T14:21:23.016Z,4.00
2023-04-01T14:23:56.414Z,4.00
2023-04-01T14:26:59.089Z,3.90
2023-04-01T14:29:54.209Z,3.80
2023-04-01T14:32:45.875Z,4.00
2023-04-01T14:35:26.443Z,4.10
2023-04-01T14:38:20.976Z,4.10
2023-04-01T14:40:58.485Z,3.90
2023-04-01T14:43:48.159Z,3.90
2023-04-01T14:46:37.691Z,4.00
2023-04-01T14:49:31.715Z,4.20
2023-04-01T14:52:16.238Z,4.20
2023-04-01T14:54:47.502Z,3.90
2023-04-01T14:57:19.652Z,3.90
2023-04-01T15:00:09.945Z,3.60
2023-04-01T15:02:46.368Z,3.70
2023-04-01T15:05:34.828Z,3.40
2023-04-01T15:08:14.652Z,3.60
2023-04-01T15:11:03.419Z,3.70
2023-04-01T15:13:31.137Z,3.40
2023-04-01T15:16:25.594Z,3.30
2023-04-01T15:19:14.768Z,3.30
2023-04-01T15:21:50.744Z,3.00
2023-04-01T15:24:25.830Z,2.90
2023-04-01T15:27:11.245Z,2.90
2023-04-01T15:30:12.901Z,2.90
2023-04-01T15:33:00.929Z,2.90
2023-04-01T15:35:47.300Z,2.90
2023-04-01T15:38:32.724Z,2.80
2023-04-01T15:41:22.827Z,2.80
2023-04-01T15:43:53.349Z,2.80
2023-04-01T15:46:43.334Z,2.80
2023-04-01T15:49:36.978Z,2.60
2023-04-01T15:52:07.514Z,2.50
2023-04-01T15:54:53.183Z,2.60
2023-04-01T15:57:29.729Z,2.30
2023-04-01T16:00:11.369Z,2.30
2023-04-01T16:03:16.704Z,2.20
2023-04-01T16:05:44.408Z,2.20
2023-04-01T16:08:50.554Z,2.20
2023-04-01T16:11:56.986Z,2.00
2023-04-01T16:14:44.318Z,2.00
2023-04-01T16:17:17.761Z,2.00
2023-04-01T16:20:16.410Z,1.90
2023-04-01T16:22:58.256Z,1.80
2023-04-01T16:25:41.119Z,1.70
2023-04-01T16:28:47.331Z,1.70
2023-04-01T16:31:25.903Z,1.70
2023-04-01T16:34:12.063Z,1.50
2023-04-01T16:36:51.742Z,1.50
2023-04-01T16:39:36.303Z,1.60
2023-04-01T16:42:23.228Z,1.50
2023-04-01T16:45:00.570Z,1.30
2023-04-01T16:47:40.709Z,1.10
2023-04-01T16:50:16.959Z,1.00
2023-04-01T16:53:01.516Z,0.80
2023-04-01T16:56:03.862Z,0.70
2023-04-01T16:58:56.848Z,0.80
2023-04-01T17:01:31.971Z,0.70
2023-04-01T17:04:09.362Z,0.50
2023-04-01T17:07:01.903Z,0.30
2023-04-01T17:09:39.500Z,0.40
2023-04-01T17:12:26.634Z,0.40
2023-04-01T17:15:02.759Z,0.30
2023-04-01T17:17:37.712Z,0.20
2023-04-01T17:20:37.862Z,0.10
2023-04-01T17:23:19.853Z,0.00
2023-04-01T17:25:52.808Z,-0.10
2023-04-01T17:28:41.928Z,-0.20
2023-04-01T17:31:22.535Z,-0.40
2023-04-01T17:34:27.806Z,-0.40
2023-04-01T17:37:19.531Z,-0.50
2023-04-01T17:39:49.422Z,-0.60
2023-04-01T17:42:38.554Z,-0.70
2023-04-01T17:45:40.391Z,-0.70
2023-04-01T17:48:15.893Z,-0.80
2023-04-01T17:50:52.124Z,-0.90
2023-04-01T17:53:44.619Z,-1.00
2023-04-01T17:56:39.819Z,-1.10
2023-04-01T17:59:25.623Z,-1.10
2023-04-01T18:02:00.929Z,-1.20
2023-04-01T18:05:00.434Z,-1.20
2023-04-01T18:07:59.352Z,-1.30
2023-04-01T18:10:50.736Z,-1.40
2023-04-01T18:13:27.179Z,-1.50
2023-04-01T18:16:31.380Z,-1.50
2023-04-01T18:19:38.687Z,-1.50
2023-04-01T18:22:38.720Z,-1.60
2023-04-01T18:25:08.833Z,-1.70
2023-04-01T18:27:49.551Z,-1.80
2023-04-01T18:30:26.183Z,-1.70
2023-04-01T18:33:35.977Z,-1.80
2023-04-01T18:36:09.570Z,-1.80
2023-04-01T18:38:48.815Z,-1.80
2023-04-01T18:41:35.891Z,-1.90
2023-04-01T18:44:15.017Z,-1.90
2023-04-01T18:47:14.360Z,-1.90
2023-04-01T18:50:08.745Z,-2.00
2023-04-01T18:52:45.302Z,-2.00
2023-04-01T18:55:30.575Z,-2.00
2023-04-01T18:58:07.840Z,-2.10
2023-04-01T19:00:44.311Z,-2.10
2023-04-01T19:03:23.069Z,-2.10
2023-04-01T19:05:54.996Z,-2.20
2023-04-01T19:08:30.369Z,-2.20
2023-04-01T19:11:11.903Z,-2.30
2023-04-01T19:14:09.127Z,-2.30
2023-04-01T19:16:52.848Z,-2.40
2023-04-01T19:19:59.601Z,-2.40
2023-04-01T19:22:56.564Z,-2.40
2023-04-01T19:25:37.862Z,-2.50
2023-04-01T19:28:22.737Z,-2.50
2023-04-01T19:30:57.411Z,-2.50
2023-04-01T19:33:52.634Z,-2.50
2023-04-01T19:36:31.681Z,-2.60
2023-04-01T19:39:10.232Z,-2.60
2023-04-01T19:42:05.554Z,-2.70
2023-04-01T19:44:41.478Z,-2.70
2023-04-01T19:47:27.534Z,-2.80
2023-04-01T19:50:11.779Z,-2.90
2023-04-01T19:52:42.895Z,-2.90
2023-04-01T19:55:41.670Z,-2.90
2023-04-01T19:58:35.037Z,-2.90
2023-04-01T20:01:04.784Z,-2.90
2023-04-01T20:03:52.348Z,-2.90
2023-04-01T20:06:53.511Z,-2.90
2023-04-01T20:09:27.474Z,-2.90
2023-04-01T20:12:27.959Z,-3.00
2023-04-01T20:14:59.832Z,-2.90
2023-04-01T20:17:39.448Z,-3.00
2023-04-01T20:20:28.470Z,-3.00
2023-04-01T20:23:01.820Z,-3.00
2023-04-01T20:25:39.695Z,-3.00
2023-04-01T20:28:24.477Z,-3.10
2023-04-01T20:31:10.871Z,-3.10
2023-04-01T20:34:11.781Z,-3.20
2023-04-01T20:37:11.916Z,-3.20
2023-04-01T20:40:12.908Z,-3.20
2023-04-01T20:43:12.426Z,-3.30
2023-04-01T20:45:54.703Z,-3.30
2023-04-01T20:48:43.329Z,-3.20
2023-04-01T20:51:15.998Z,-3.20
2023-04-01T20:54:03.886Z,-3.10
2023-04-01T20:56:54.538Z,-3.20
2023-04-01T21:00:00.262Z,-3.20
2023-04-01T21:02:49.076Z,-3.20
2023-04-01T21:05:37.711Z,-3.40
2023-04-01T21:08:33.547Z,-3.40
2023-04-01T21:11:13.554Z,-3.40
2023-04-01T21:13:55.811Z,-3.40
2023-04-01T21:16:49.977Z,-3.40
2023-04-01T21:19:33.506Z,-3.50
2023-04-01T21:22:17.792Z,-3.60
2023-04-01T21:25:15.757Z,-3.60
2023-04-01T21:28:12.269Z,-3.60
2023-04-01T21:30:42.558Z,-3.70
2023-04-01T21:33:45.803Z,-3.80
2023-04-01T21:36:29.016Z,-3.90
2023-04-01T21:39:02.071Z,-3.90
2023-04-01T21:41:50.861Z,-3.90
2023-04-01T21:44:39.590Z,-3.90
2023-04-01T21:47:26.218Z,-3.90
2023-04-01T21:50:14.973Z,-4.10
2023-04-01T21:53:16.890Z,-4.10
2023-04-01T21:56:09.337Z,-4.10
2023-04-01T21:59:02.670Z,-4.10
2023-04-01T22:01:57.124Z,-4.20
2023-04-01T22:04:24.571Z,-4.20
2023-04-01T22:07:23.435Z,-4.20
2023-04-01T22:10:05.793Z,-4.20
2023-04-01T22:12:50.172Z,-4.30
2023-04-01T22:15:51.608Z,-4.40
2023-04-01T22:18:38.296Z,-4.50
2023-04-01T22:21:22.540Z,-4.60
2023-04-01T22:24:17.612Z,-4.70
2023-04-01T22:27:07.536Z,-4.70
2023-04-01T22:29:52.078Z,-4.80
2023-04-01T22:32:29.692Z,-4.80
2023-04-01T22:35:03.887Z,-4.90
2023-04-01T22:37:48.583Z,-4.90
2023-04-01T22:40:18.940Z,-4.90
2023-04-01T22:42:59.087Z,-4.90
2023-04-01T22:45:47.296Z,-4.80
2023-04-01T22:48:26.863Z,-4.80
2023-04-01T22:51:13.406Z,-4.70
2023-04-01T22:54:05.881Z,-4.50
2023-04-01T22:56:46.007Z,-4.50
2023-04-01T22:59:17.248Z,-4.50
2023-04-01T23:02:00.623Z,-4.60
2023-04-01T23:04:34.963Z,-4.60
2023-04-01T23:07:15.077Z,-4.60
2023-04-01T23:09:42.592Z,-4.60
2023-04-01T23:12:16.514Z,-4.50
2023-04-01T23:15:01.021Z,-4.50
2023-04-01T23:17:47.073Z,-4.50
2023-04-01T23:20:33.009Z,-4.40
2023-04-01T23:23:25.515Z,-4.40
2023-04-01T23:25:58.160Z,-4.40
2023-04-01T23:28:42.964Z,-4.40
2023-04-01T23:31:30.918Z,-4.50
2023-04-01T23:34:01.888Z,-4.50
2023-04-01T23:36:31.136Z,-4.50
2023-04-01T23:39:04.664Z,-4.50
2023-04-01T23:41:34.553Z,-4.50
2023-04-01T23:44:09.349Z,-4.50
2023-04-01T23:46:37.583Z,-4.50
2023-04-01T23:49:07.465Z,-4.50
2023-04-01T23:51:47.328Z,-4.50
2023-04-01T23:54:30.279Z,-4.50
2023-04-01T23:56:58.541Z,-4.50
2023-04-01T23:59:34.416Z,-4.50
